Johnsville, Kentucky
Current Conditions -  °F | °C
As of 1:15 PM on Friday 28 Nov 2014 (Local Time) from KFGX Reporting Station
Scattered Clouds Scattered Clouds  
Wind Chill: 24°   Ceiling: Unl
Heat Index: 33°   Visibility: 10mi
Dew Point: 19°   Wind: 10mph
Humidity: 58%   Direction: 210°SSW
Pressure: 30.32"   Gusts: NA
Location:  38.7475°N, 84.1516°W
Report Text: KFGX 281815Z AUTO 21009KT 10SM SCT070 00/M07 A3032 RMK AO2 T00041071
Loading
Personal Weather Stations






























Interactive Weather Map New forecast layout! Learn more

10-Day Weather Forecast

Advertisements
Track Severe Weather on mobile